Terminal Aerodrome Forecast
Issued by NWS

Home | Current Version | Previous Version | Text Only | Print | Product List | Glossary On
Versions: 1 2 3 4 5 6 7 8 9 10 11 12 13 14
000
FTUS45 KGGW 152300
TAFGDV
TAF
KGDV 152331Z 1600/1624 29015G20KT P6SM SCT090
     FM160300 01015KT P6SM BKN070
     FM160600 02015KT P6SM BKN050
     FM161100 02012KT P6SM BKN025
     FM161800 05007KT P6SM BKN035
      AMD LTD TO CLD VIS AND WIND=

USA.gov is the U.S. government's official web portal to all federal, state and local government web resources and services.